sensor_id;sensor_type;location;lat;lon;timestamp;temperature;humidity
5118;DHT22;2578;51.622;7.046;2022-08-21T00:00:39;16.30;99.90
5118;DHT22;2578;51.622;7.046;2022-08-21T00:03:07;16.30;99.90
5118;DHT22;2578;51.622;7.046;2022-08-21T00:05:38;16.30;99.90
5118;DHT22;2578;51.622;7.046;2022-08-21T00:08:04;16.20;99.90
5118;DHT22;2578;51.622;7.046;2022-08-21T00:10:31;16.10;99.90
5118;DHT22;2578;51.622;7.046;2022-08-21T00:12:57;15.90;99.90
5118;DHT22;2578;51.622;7.046;2022-08-21T00:15:27;15.90;99.90
5118;DHT22;2578;51.622;7.046;2022-08-21T00:17:54;15.80;99.90
5118;DHT22;2578;51.622;7.046;2022-08-21T00:20:21;15.90;99.90
5118;DHT22;2578;51.622;7.046;2022-08-21T00:22:47;15.90;99.90
5118;DHT22;2578;51.622;7.046;2022-08-21T00:25:14;15.80;99.90
5118;DHT22;2578;51.622;7.046;2022-08-21T00:27:40;15.60;99.90
5118;DHT22;2578;51.622;7.046;2022-08-21T00:30:09;15.50;99.90
5118;DHT22;2578;51.622;7.046;2022-08-21T00:32:37;15.50;99.90
5118;DHT22;2578;51.622;7.046;2022-08-21T00:35:08;15.50;99.90
5118;DHT22;2578;51.622;7.046;2022-08-21T00:37:34;15.50;99.90
5118;DHT22;2578;51.622;7.046;2022-08-21T00:40:00;15.40;99.90
5118;DHT22;2578;51.622;7.046;2022-08-21T00:42:28;15.50;99.90
5118;DHT22;2578;51.622;7.046;2022-08-21T00:44:54;15.40;99.90
5118;DHT22;2578;51.622;7.046;2022-08-21T00:47:19;15.30;99.90
5118;DHT22;2578;51.622;7.046;2022-08-21T00:49:45;15.30;99.90
5118;DHT22;2578;51.622;7.046;2022-08-21T00:52:15;15.30;99.90
5118;DHT22;2578;51.622;7.046;2022-08-21T00:54:43;15.20;99.90
5118;DHT22;2578;51.622;7.046;2022-08-21T00:57:24;15.20;99.90
5118;DHT22;2578;51.622;7.046;2022-08-21T00:59:52;15.20;99.90
5118;DHT22;2578;51.622;7.046;2022-08-21T01:02:20;15.10;99.90
5118;DHT22;2578;51.622;7.046;2022-08-21T01:04:46;15.10;99.90
5118;DHT22;2578;51.622;7.046;2022-08-21T01:07:12;15.00;99.90
5118;DHT22;2578;51.622;7.046;2022-08-21T01:09:39;14.90;99.90
5118;DHT22;2578;51.622;7.046;2022-08-21T01:12:05;14.80;99.90
5118;DHT22;2578;51.622;7.046;2022-08-21T01:14:31;14.60;99.90
5118;DHT22;2578;51.622;7.046;2022-08-21T01:16:58;14.40;99.90
5118;DHT22;2578;51.622;7.046;2022-08-21T01:19:25;14.40;99.90
5118;DHT22;2578;51.622;7.046;2022-08-21T01:21:50;14.40;99.90
5118;DHT22;2578;51.622;7.046;2022-08-21T01:24:16;14.20;99.90
5118;DHT22;2578;51.622;7.046;2022-08-21T01:26:43;14.00;99.90
5118;DHT22;2578;51.622;7.046;2022-08-21T01:29:23;14.00;99.90
5118;DHT22;2578;51.622;7.046;2022-08-21T01:31:51;13.90;99.90
5118;DHT22;2578;51.622;7.046;2022-08-21T01:34:17;13.80;99.90
5118;DHT22;2578;51.622;7.046;2022-08-21T01:36:44;13.60;99.90
5118;DHT22;2578;51.622;7.046;2022-08-21T01:39:11;13.70;99.90
5118;DHT22;2578;51.622;7.046;2022-08-21T01:41:37;13.70;99.90
5118;DHT22;2578;51.622;7.046;2022-08-21T01:44:03;13.80;99.90
5118;DHT22;2578;51.622;7.046;2022-08-21T01:46:29;13.70;99.90
5118;DHT22;2578;51.622;7.046;2022-08-21T01:48:54;13.60;99.90
5118;DHT22;2578;51.622;7.046;2022-08-21T01:51:20;13.50;99.90
5118;DHT22;2578;51.622;7.046;2022-08-21T01:53:46;13.40;99.90
5118;DHT22;2578;51.622;7.046;2022-08-21T01:56:13;13.30;99.90
5118;DHT22;2578;51.622;7.046;2022-08-21T01:58:41;13.20;99.90
5118;DHT22;2578;51.622;7.046;2022-08-21T02:01:07;13.10;99.90
5118;DHT22;2578;51.622;7.046;2022-08-21T02:03:33;13.00;99.90
5118;DHT22;2578;51.622;7.046;2022-08-21T02:05:58;13.00;99.90
5118;DHT22;2578;51.622;7.046;2022-08-21T02:08:24;12.90;99.90
5118;DHT22;2578;51.622;7.046;2022-08-21T02:10:51;12.90;99.90
5118;DHT22;2578;51.622;7.046;2022-08-21T02:13:17;12.80;99.90
5118;DHT22;2578;51.622;7.046;2022-08-21T02:15:43;12.80;99.90
5118;DHT22;2578;51.622;7.046;2022-08-21T02:18:09;12.70;99.90
5118;DHT22;2578;51.622;7.046;2022-08-21T02:20:40;12.80;99.90
5118;DHT22;2578;51.622;7.046;2022-08-21T02:23:08;12.70;99.90
5118;DHT22;2578;51.622;7.046;2022-08-21T02:25:34;12.70;99.90
5118;DHT22;2578;51.622;7.046;2022-08-21T02:28:07;12.70;99.90
5118;DHT22;2578;51.622;7.046;2022-08-21T02:30:36;12.70;99.90
5118;DHT22;2578;51.622;7.046;2022-08-21T02:33:03;12.60;99.90
5118;DHT22;2578;51.622;7.046;2022-08-21T02:35:29;12.60;99.90
5118;DHT22;2578;51.622;7.046;2022-08-21T02:37:58;12.50;99.90
5118;DHT22;2578;51.622;7.046;2022-08-21T02:40:26;12.60;99.90
5118;DHT22;2578;51.622;7.046;2022-08-21T02:42:52;12.60;99.90
5118;DHT22;2578;51.622;7.046;2022-08-21T02:45:19;12.40;99.90
5118;DHT22;2578;51.622;7.046;2022-08-21T02:47:53;12.40;99.90
5118;DHT22;2578;51.622;7.046;2022-08-21T02:50:31;12.40;99.90
5118;DHT22;2578;51.622;7.046;2022-08-21T02:52:57;12.40;99.90
5118;DHT22;2578;51.622;7.046;2022-08-21T02:55:25;12.40;99.90
5118;DHT22;2578;51.622;7.046;2022-08-21T02:57:52;12.30;99.90
5118;DHT22;2578;51.622;7.046;2022-08-21T03:00:19;12.30;99.90
5118;DHT22;2578;51.622;7.046;2022-08-21T03:02:46;12.30;99.90
5118;DHT22;2578;51.622;7.046;2022-08-21T03:05:12;12.50;99.90
5118;DHT22;2578;51.622;7.046;2022-08-21T03:07:41;12.40;99.90
5118;DHT22;2578;51.622;7.046;2022-08-21T03:10:07;12.40;99.90
5118;DHT22;2578;51.622;7.046;2022-08-21T03:12:33;12.40;99.90
5118;DHT22;2578;51.622;7.046;2022-08-21T03:15:02;12.50;99.90
5118;DHT22;2578;51.622;7.046;2022-08-21T03:17:28;12.60;99.90
5118;DHT22;2578;51.622;7.046;2022-08-21T03:19:54;12.70;99.90
5118;DHT22;2578;51.622;7.046;2022-08-21T03:22:19;12.80;99.90
5118;DHT22;2578;51.622;7.046;2022-08-21T03:24:45;12.70;99.90
5118;DHT22;2578;51.622;7.046;2022-08-21T03:27:11;12.60;99.90
5118;DHT22;2578;51.622;7.046;2022-08-21T03:29:39;12.70;99.90
5118;DHT22;2578;51.622;7.046;2022-08-21T03:32:05;12.70;99.90
5118;DHT22;2578;51.622;7.046;2022-08-21T03:34:32;12.60;99.90
5118;DHT22;2578;51.622;7.046;2022-08-21T03:36:58;12.80;99.90
5118;DHT22;2578;51.622;7.046;2022-08-21T03:39:23;12.80;99.90
5118;DHT22;2578;51.622;7.046;2022-08-21T03:41:49;12.80;99.90
5118;DHT22;2578;51.622;7.046;2022-08-21T03:44:15;12.80;99.90
5118;DHT22;2578;51.622;7.046;2022-08-21T03:46:40;12.80;99.90
5118;DHT22;2578;51.622;7.046;2022-08-21T03:49:06;12.80;99.90
5118;DHT22;2578;51.622;7.046;2022-08-21T03:51:32;12.80;99.90
5118;DHT22;2578;51.622;7.046;2022-08-21T03:53:59;12.80;99.90
5118;DHT22;2578;51.622;7.046;2022-08-21T03:56:24;12.80;99.90
5118;DHT22;2578;51.622;7.046;2022-08-21T03:58:50;12.70;99.90
5118;DHT22;2578;51.622;7.046;2022-08-21T04:01:16;12.60;99.90
5118;DHT22;2578;51.622;7.046;2022-08-21T04:03:41;12.50;99.90
5118;DHT22;2578;51.622;7.046;2022-08-21T04:06:07;12.40;99.90
5118;DHT22;2578;51.622;7.046;2022-08-21T04:08:33;12.30;99.90
5118;DHT22;2578;51.622;7.046;2022-08-21T04:11:00;12.30;99.90
5118;DHT22;2578;51.622;7.046;2022-08-21T04:13:27;12.30;99.90
5118;DHT22;2578;51.622;7.046;2022-08-21T04:15:54;12.20;99.90
5118;DHT22;2578;51.622;7.046;2022-08-21T04:18:20;12.20;99.90
5118;DHT22;2578;51.622;7.046;2022-08-21T04:20:48;12.10;99.90
5118;DHT22;2578;51.622;7.046;2022-08-21T04:23:15;12.10;99.90
5118;DHT22;2578;51.622;7.046;2022-08-21T04:25:41;12.10;99.90
5118;DHT22;2578;51.622;7.046;2022-08-21T04:28:06;12.00;99.90
5118;DHT22;2578;51.622;7.046;2022-08-21T04:30:32;12.00;99.90
5118;DHT22;2578;51.622;7.046;2022-08-21T04:32:58;11.80;99.90
5118;DHT22;2578;51.622;7.046;2022-08-21T04:35:25;11.70;99.90
5118;DHT22;2578;51.622;7.046;2022-08-21T04:37:51;11.70;99.90
5118;DHT22;2578;51.622;7.046;2022-08-21T04:40:19;11.70;99.90
5118;DHT22;2578;51.622;7.046;2022-08-21T04:42:51;11.70;99.90
5118;DHT22;2578;51.622;7.046;2022-08-21T04:47:52;11.70;99.90
5118;DHT22;2578;51.622;7.046;2022-08-21T04:50:19;11.80;99.90
5118;DHT22;2578;51.622;7.046;2022-08-21T04:52:45;12.00;99.90
5118;DHT22;2578;51.622;7.046;2022-08-21T04:55:12;12.00;99.90
5118;DHT22;2578;51.622;7.046;2022-08-21T04:57:38;12.00;99.90
5118;DHT22;2578;51.622;7.046;2022-08-21T05:00:05;12.00;99.90
5118;DHT22;2578;51.622;7.046;2022-08-21T05:02:31;12.00;99.90
5118;DHT22;2578;51.622;7.046;2022-08-21T05:04:58;12.10;99.90
5118;DHT22;2578;51.622;7.046;2022-08-21T05:07:27;12.00;99.90
5118;DHT22;2578;51.622;7.046;2022-08-21T05:09:54;12.10;99.90
5118;DHT22;2578;51.622;7.046;2022-08-21T05:12:20;12.10;99.90
5118;DHT22;2578;51.622;7.046;2022-08-21T05:14:46;12.30;99.90
5118;DHT22;2578;51.622;7.046;2022-08-21T05:17:12;12.50;99.90
5118;DHT22;2578;51.622;7.046;2022-08-21T05:19:38;12.60;99.90
5118;DHT22;2578;51.622;7.046;2022-08-21T05:22:04;12.80;99.90
5118;DHT22;2578;51.622;7.046;2022-08-21T05:24:30;12.90;99.90
5118;DHT22;2578;51.622;7.046;2022-08-21T05:26:55;13.20;99.90
5118;DHT22;2578;51.622;7.046;2022-08-21T05:29:21;13.20;99.90
5118;DHT22;2578;51.622;7.046;2022-08-21T05:31:47;13.50;99.90
5118;DHT22;2578;51.622;7.046;2022-08-21T05:34:17;13.80;99.90
5118;DHT22;2578;51.622;7.046;2022-08-21T05:36:43;14.60;99.90
5118;DHT22;2578;51.622;7.046;2022-08-21T05:39:09;14.50;99.90
5118;DHT22;2578;51.622;7.046;2022-08-21T05:41:35;14.90;99.90
5118;DHT22;2578;51.622;7.046;2022-08-21T05:44:01;15.40;99.90
5118;DHT22;2578;51.622;7.046;2022-08-21T05:46:26;15.70;99.90
5118;DHT22;2578;51.622;7.046;2022-08-21T05:48:52;16.00;99.90
5118;DHT22;2578;51.622;7.046;2022-08-21T05:51:17;16.40;99.90
5118;DHT22;2578;51.622;7.046;2022-08-21T05:53:44;16.70;99.90
5118;DHT22;2578;51.622;7.046;2022-08-21T05:56:11;17.00;99.90
5118;DHT22;2578;51.622;7.046;2022-08-21T05:58:37;17.20;99.90
5118;DHT22;2578;51.622;7.046;2022-08-21T06:01:04;17.40;99.90
5118;DHT22;2578;51.622;7.046;2022-08-21T06:03:34;17.50;99.90
5118;DHT22;2578;51.622;7.046;2022-08-21T06:06:00;17.70;99.90
5118;DHT22;2578;51.622;7.046;2022-08-21T06:08:27;17.90;99.90
5118;DHT22;2578;51.622;7.046;2022-08-21T06:10:54;18.10;99.90
5118;DHT22;2578;51.622;7.046;2022-08-21T06:13:21;18.30;99.90
5118;DHT22;2578;51.622;7.046;2022-08-21T06:15:48;18.40;99.90
5118;DHT22;2578;51.622;7.046;2022-08-21T06:18:14;18.60;99.90
5118;DHT22;2578;51.622;7.046;2022-08-21T06:20:41;18.80;99.90
5118;DHT22;2578;51.622;7.046;2022-08-21T06:23:07;19.00;99.90
5118;DHT22;2578;51.622;7.046;2022-08-21T06:25:33;19.20;99.90
5118;DHT22;2578;51.622;7.046;2022-08-21T06:28:07;19.40;99.90
5118;DHT22;2578;51.622;7.046;2022-08-21T06:30:34;19.70;99.90
5118;DHT22;2578;51.622;7.046;2022-08-21T06:33:00;20.10;99.90
5118;DHT22;2578;51.622;7.046;2022-08-21T06:35:26;20.20;99.90
5118;DHT22;2578;51.622;7.046;2022-08-21T06:37:51;20.40;99.90
5118;DHT22;2578;51.622;7.046;2022-08-21T06:40:17;20.70;99.90
5118;DHT22;2578;51.622;7.046;2022-08-21T06:42:43;20.80;99.90
5118;DHT22;2578;51.622;7.046;2022-08-21T06:45:09;21.00;99.90
5118;DHT22;2578;51.622;7.046;2022-08-21T06:47:35;21.10;99.90
5118;DHT22;2578;51.622;7.046;2022-08-21T06:50:01;21.20;99.90
5118;DHT22;2578;51.622;7.046;2022-08-21T06:52:27;21.10;99.90
5118;DHT22;2578;51.622;7.046;2022-08-21T06:54:53;21.20;99.90
5118;DHT22;2578;51.622;7.046;2022-08-21T06:57:18;21.40;99.90
5118;DHT22;2578;51.622;7.046;2022-08-21T06:59:44;21.50;99.90
5118;DHT22;2578;51.622;7.046;2022-08-21T07:02:10;21.80;99.90
5118;DHT22;2578;51.622;7.046;2022-08-21T07:04:36;22.00;99.90
5118;DHT22;2578;51.622;7.046;2022-08-21T07:07:01;22.00;99.90
5118;DHT22;2578;51.622;7.046;2022-08-21T07:09:27;22.10;99.90
5118;DHT22;2578;51.622;7.046;2022-08-21T07:11:55;22.30;99.90
5118;DHT22;2578;51.622;7.046;2022-08-21T07:14:21;22.50;99.90
5118;DHT22;2578;51.622;7.046;2022-08-21T07:16:48;23.00;99.90
5118;DHT22;2578;51.622;7.046;2022-08-21T07:19:13;22.90;99.90
5118;DHT22;2578;51.622;7.046;2022-08-21T07:21:39;23.20;99.90
5118;DHT22;2578;51.622;7.046;2022-08-21T07:24:05;23.40;99.90
5118;DHT22;2578;51.622;7.046;2022-08-21T07:26:30;23.50;99.90
5118;DHT22;2578;51.622;7.046;2022-08-21T07:28:56;23.60;98.80
5118;DHT22;2578;51.622;7.046;2022-08-21T07:31:23;23.60;98.00
5118;DHT22;2578;51.622;7.046;2022-08-21T07:33:49;23.70;97.50
5118;DHT22;2578;51.622;7.046;2022-08-21T07:36:15;23.80;95.90
5118;DHT22;2578;51.622;7.046;2022-08-21T07:38:41;23.90;95.40
5118;DHT22;2578;51.622;7.046;2022-08-21T07:41:19;24.00;95.10
5118;DHT22;2578;51.622;7.046;2022-08-21T07:43:46;24.30;95.50
5118;DHT22;2578;51.622;7.046;2022-08-21T07:46:14;23.90;89.40
5118;DHT22;2578;51.622;7.046;2022-08-21T07:48:41;23.40;92.80
5118;DHT22;2578;51.622;7.046;2022-08-21T07:51:11;23.30;95.40
5118;DHT22;2578;51.622;7.046;2022-08-21T07:53:38;23.00;96.20
5118;DHT22;2578;51.622;7.046;2022-08-21T07:56:05;22.90;97.80
5118;DHT22;2578;51.622;7.046;2022-08-21T07:58:31;23.00;99.00
5118;DHT22;2578;51.622;7.046;2022-08-21T08:00:57;23.00;96.90
5118;DHT22;2578;51.622;7.046;2022-08-21T08:03:23;23.10;97.90
5118;DHT22;2578;51.622;7.046;2022-08-21T08:05:52;23.00;98.20
5118;DHT22;2578;51.622;7.046;2022-08-21T08:08:17;22.90;97.80
5118;DHT22;2578;51.622;7.046;2022-08-21T08:10:50;22.80;98.40
5118;DHT22;2578;51.622;7.046;2022-08-21T08:13:30;22.90;99.40
5118;DHT22;2578;51.622;7.046;2022-08-21T08:16:10;23.00;99.00
5118;DHT22;2578;51.622;7.046;2022-08-21T08:18:36;23.10;96.50
5118;DHT22;2578;51.622;7.046;2022-08-21T08:21:02;23.10;98.10
5118;DHT22;2578;51.622;7.046;2022-08-21T08:23:28;23.20;96.80
5118;DHT22;2578;51.622;7.046;2022-08-21T08:25:55;23.40;94.80
5118;DHT22;2578;51.622;7.046;2022-08-21T08:28:21;23.40;94.50
5118;DHT22;2578;51.622;7.046;2022-08-21T08:30:47;23.20;94.10
5118;DHT22;2578;51.622;7.046;2022-08-21T08:33:14;23.30;96.10
5118;DHT22;2578;51.622;7.046;2022-08-21T08:35:41;23.80;95.10
5118;DHT22;2578;51.622;7.046;2022-08-21T08:38:07;24.00;91.50
5118;DHT22;2578;51.622;7.046;2022-08-21T08:40:44;24.20;88.30
5118;DHT22;2578;51.622;7.046;2022-08-21T08:43:12;24.40;90.10
5118;DHT22;2578;51.622;7.046;2022-08-21T08:45:41;24.50;82.90
5118;DHT22;2578;51.622;7.046;2022-08-21T08:48:10;24.40;79.90
5118;DHT22;2578;51.622;7.046;2022-08-21T08:50:44;24.50;76.50
5118;DHT22;2578;51.622;7.046;2022-08-21T08:53:33;24.30;72.30
5118;DHT22;2578;51.622;7.046;2022-08-21T08:56:00;24.30;73.20
5118;DHT22;2578;51.622;7.046;2022-08-21T08:58:31;24.30;71.30
5118;DHT22;2578;51.622;7.046;2022-08-21T09:00:58;24.30;69.00
5118;DHT22;2578;51.622;7.046;2022-08-21T09:03:25;24.60;63.20
5118;DHT22;2578;51.622;7.046;2022-08-21T09:08:47;24.90;60.70
5118;DHT22;2578;51.622;7.046;2022-08-21T09:14:49;24.40;53.40
5118;DHT22;2578;51.622;7.046;2022-08-21T09:17:34;25.10;50.70
5118;DHT22;2578;51.622;7.046;2022-08-21T09:20:17;25.10;51.10
5118;DHT22;2578;51.622;7.046;2022-08-21T09:25:19;24.30;48.30
5118;DHT22;2578;51.622;7.046;2022-08-21T09:27:46;24.30;50.30
5118;DHT22;2578;51.622;7.046;2022-08-21T09:30:12;24.60;50.70
5118;DHT22;2578;51.622;7.046;2022-08-21T09:32:38;25.20;48.50
5118;DHT22;2578;51.622;7.046;2022-08-21T09:35:06;25.60;39.40
5118;DHT22;2578;51.622;7.046;2022-08-21T09:37:57;25.90;34.50
5118;DHT22;2578;51.622;7.046;2022-08-21T09:45:35;25.90;27.00
5118;DHT22;2578;51.622;7.046;2022-08-21T09:48:22;26.20;24.20
5118;DHT22;2578;51.622;7.046;2022-08-21T09:50:49;26.50;24.00
5118;DHT22;2578;51.622;7.046;2022-08-21T09:53:28;26.50;16.90
5118;DHT22;2578;51.622;7.046;2022-08-21T09:55:56;26.60;18.30
5118;DHT22;2578;51.622;7.046;2022-08-21T09:58:45;26.50;16.10
5118;DHT22;2578;51.622;7.046;2022-08-21T10:01:17;26.70;17.30
5118;DHT22;2578;51.622;7.046;2022-08-21T10:03:44;26.70;14.60
5118;DHT22;2578;51.622;7.046;2022-08-21T10:06:22;27.00;11.90
5118;DHT22;2578;51.622;7.046;2022-08-21T10:08:48;27.50;7.90
5118;DHT22;2578;51.622;7.046;2022-08-21T10:11:15;27.90;3.50
5118;DHT22;2578;51.622;7.046;2022-08-21T10:24:58;27.30;1.00
5118;DHT22;2578;51.622;7.046;2022-08-21T10:30:21;28.20;1.00
5118;DHT22;2578;51.622;7.046;2022-08-21T10:36:12;28.30;1.00
5118;DHT22;2578;51.622;7.046;2022-08-21T10:55:16;27.80;1.00
5118;DHT22;2578;51.622;7.046;2022-08-21T10:57:50;27.50;1.00
5118;DHT22;2578;51.622;7.046;2022-08-21T11:00:22;26.80;1.00
5118;DHT22;2578;51.622;7.046;2022-08-21T11:03:04;27.00;1.00
5118;DHT22;2578;51.622;7.046;2022-08-21T11:05:39;27.10;1.00
5118;DHT22;2578;51.622;7.046;2022-08-21T11:08:31;27.20;1.00
5118;DHT22;2578;51.622;7.046;2022-08-21T11:11:10;27.40;1.00
5118;DHT22;2578;51.622;7.046;2022-08-21T11:14:01;27.10;1.00
5118;DHT22;2578;51.622;7.046;2022-08-21T11:16:41;26.90;1.00
5118;DHT22;2578;51.622;7.046;2022-08-21T11:19:17;27.40;1.00
5118;DHT22;2578;51.622;7.046;2022-08-21T11:24:50;28.00;1.00
5118;DHT22;2578;51.622;7.046;2022-08-21T11:27:28;27.40;1.00
5118;DHT22;2578;51.622;7.046;2022-08-21T11:29:59;27.70;1.00
5118;DHT22;2578;51.622;7.046;2022-08-21T11:52:00;26.90;1.00
5118;DHT22;2578;51.622;7.046;2022-08-21T12:02:51;27.00;1.00
5118;DHT22;2578;51.622;7.046;2022-08-21T12:05:30;27.20;1.00
5118;DHT22;2578;51.622;7.046;2022-08-21T12:08:10;27.70;1.00
5118;DHT22;2578;51.622;7.046;2022-08-21T12:10:58;28.20;1.00
5118;DHT22;2578;51.622;7.046;2022-08-21T12:13:28;29.10;1.00
5118;DHT22;2578;51.622;7.046;2022-08-21T12:16:08;29.80;1.00
5118;DHT22;2578;51.622;7.046;2022-08-21T12:18:34;29.60;1.00
5118;DHT22;2578;51.622;7.046;2022-08-21T12:21:26;29.20;1.00
5118;DHT22;2578;51.622;7.046;2022-08-21T12:26:51;28.40;1.00
5118;DHT22;2578;51.622;7.046;2022-08-21T12:34:28;29.00;1.00
5118;DHT22;2578;51.622;7.046;2022-08-21T12:37:06;29.00;1.00
5118;DHT22;2578;51.622;7.046;2022-08-21T12:39:36;28.90;1.00
5118;DHT22;2578;51.622;7.046;2022-08-21T12:44:51;29.00;1.00
5118;DHT22;2578;51.622;7.046;2022-08-21T12:50:08;29.40;1.00
5118;DHT22;2578;51.622;7.046;2022-08-21T12:55:45;30.10;1.00
5118;DHT22;2578;51.622;7.046;2022-08-21T12:58:24;30.10;1.00
5118;DHT22;2578;51.622;7.046;2022-08-21T13:00:56;30.10;1.00
5118;DHT22;2578;51.622;7.046;2022-08-21T13:03:24;30.30;1.00
5118;DHT22;2578;51.622;7.046;2022-08-21T13:05:50;30.30;1.00
5118;DHT22;2578;51.622;7.046;2022-08-21T13:08:20;30.50;1.00
5118;DHT22;2578;51.622;7.046;2022-08-21T13:10:48;30.60;1.00
5118;DHT22;2578;51.622;7.046;2022-08-21T13:13:20;30.60;1.00
5118;DHT22;2578;51.622;7.046;2022-08-21T13:15:47;30.50;1.00
5118;DHT22;2578;51.622;7.046;2022-08-21T13:18:24;30.30;1.00
5118;DHT22;2578;51.622;7.046;2022-08-21T13:20:50;30.20;1.00
5118;DHT22;2578;51.622;7.046;2022-08-21T13:25:45;29.40;1.00
5118;DHT22;2578;51.622;7.046;2022-08-21T13:28:12;29.00;1.00
5118;DHT22;2578;51.622;7.046;2022-08-21T13:31:00;29.20;1.00
5118;DHT22;2578;51.622;7.046;2022-08-21T13:33:30;29.50;1.00
5118;DHT22;2578;51.622;7.046;2022-08-21T13:38:25;30.30;1.00
5118;DHT22;2578;51.622;7.046;2022-08-21T13:40:59;30.70;1.00
5118;DHT22;2578;51.622;7.046;2022-08-21T13:43:34;30.90;1.00
5118;DHT22;2578;51.622;7.046;2022-08-21T13:46:02;30.80;1.00
5118;DHT22;2578;51.622;7.046;2022-08-21T13:48:34;30.00;1.00
5118;DHT22;2578;51.622;7.046;2022-08-21T13:51:00;29.90;1.00
5118;DHT22;2578;51.622;7.046;2022-08-21T13:53:35;29.60;1.00
5118;DHT22;2578;51.622;7.046;2022-08-21T13:56:03;29.20;1.00
5118;DHT22;2578;51.622;7.046;2022-08-21T13:58:46;29.40;1.00
5118;DHT22;2578;51.622;7.046;2022-08-21T14:01:21;29.90;1.00
5118;DHT22;2578;51.622;7.046;2022-08-21T14:03:49;30.40;1.00
5118;DHT22;2578;51.622;7.046;2022-08-21T14:06:22;30.30;1.00
5118;DHT22;2578;51.622;7.046;2022-08-21T14:08:55;30.40;1.00
5118;DHT22;2578;51.622;7.046;2022-08-21T14:11:21;30.50;1.00
5118;DHT22;2578;51.622;7.046;2022-08-21T14:14:00;30.30;1.00
5118;DHT22;2578;51.622;7.046;2022-08-21T14:16:40;29.40;1.00
5118;DHT22;2578;51.622;7.046;2022-08-21T14:19:21;28.20;1.00
5118;DHT22;2578;51.622;7.046;2022-08-21T14:21:47;27.60;1.00
5118;DHT22;2578;51.622;7.046;2022-08-21T14:24:13;27.00;1.00
5118;DHT22;2578;51.622;7.046;2022-08-21T14:29:35;26.10;1.00
5118;DHT22;2578;51.622;7.046;2022-08-21T14:34:40;25.90;1.00
5118;DHT22;2578;51.622;7.046;2022-08-21T14:37:06;25.80;1.00
5118;DHT22;2578;51.622;7.046;2022-08-21T14:39:32;25.90;1.00
5118;DHT22;2578;51.622;7.046;2022-08-21T14:41:58;26.00;1.00
5118;DHT22;2578;51.622;7.046;2022-08-21T14:44:24;26.10;1.00
5118;DHT22;2578;51.622;7.046;2022-08-21T14:46:50;26.90;1.00
5118;DHT22;2578;51.622;7.046;2022-08-21T14:49:16;26.90;1.00
5118;DHT22;2578;51.622;7.046;2022-08-21T14:51:42;26.90;1.00
5118;DHT22;2578;51.622;7.046;2022-08-21T14:54:07;27.00;1.00
5118;DHT22;2578;51.622;7.046;2022-08-21T14:56:34;27.60;1.00
5118;DHT22;2578;51.622;7.046;2022-08-21T14:59:05;27.90;1.00
5118;DHT22;2578;51.622;7.046;2022-08-21T15:01:35;28.20;1.00
5118;DHT22;2578;51.622;7.046;2022-08-21T15:04:01;28.60;1.00
5118;DHT22;2578;51.622;7.046;2022-08-21T15:06:27;28.80;1.00
5118;DHT22;2578;51.622;7.046;2022-08-21T15:08:53;28.70;1.00
5118;DHT22;2578;51.622;7.046;2022-08-21T15:11:20;28.80;1.00
5118;DHT22;2578;51.622;7.046;2022-08-21T15:13:47;28.60;1.00
5118;DHT22;2578;51.622;7.046;2022-08-21T15:16:16;28.40;1.00
5118;DHT22;2578;51.622;7.046;2022-08-21T15:18:41;28.50;1.00
5118;DHT22;2578;51.622;7.046;2022-08-21T15:21:08;28.60;1.00
5118;DHT22;2578;51.622;7.046;2022-08-21T15:23:33;28.80;1.00
5118;DHT22;2578;51.622;7.046;2022-08-21T15:26:00;29.00;1.00
5118;DHT22;2578;51.622;7.046;2022-08-21T15:28:26;29.60;1.00
5118;DHT22;2578;51.622;7.046;2022-08-21T15:30:52;29.80;1.00
5118;DHT22;2578;51.622;7.046;2022-08-21T15:33:18;29.50;1.00
5118;DHT22;2578;51.622;7.046;2022-08-21T15:35:44;29.00;1.00
5118;DHT22;2578;51.622;7.046;2022-08-21T15:38:12;28.80;1.00
5118;DHT22;2578;51.622;7.046;2022-08-21T15:40:38;28.60;1.00
5118;DHT22;2578;51.622;7.046;2022-08-21T15:43:04;28.60;1.00
5118;DHT22;2578;51.622;7.046;2022-08-21T15:45:31;28.50;1.00
5118;DHT22;2578;51.622;7.046;2022-08-21T15:47:58;28.30;1.00
5118;DHT22;2578;51.622;7.046;2022-08-21T15:50:25;28.60;1.00
5118;DHT22;2578;51.622;7.046;2022-08-21T15:52:52;28.60;1.00
5118;DHT22;2578;51.622;7.046;2022-08-21T15:55:17;28.30;1.00
5118;DHT22;2578;51.622;7.046;2022-08-21T15:57:46;27.60;1.00
5118;DHT22;2578;51.622;7.046;2022-08-21T16:00:18;27.50;1.00
5118;DHT22;2578;51.622;7.046;2022-08-21T16:02:48;27.20;1.00
5118;DHT22;2578;51.622;7.046;2022-08-21T16:05:15;26.80;1.00
5118;DHT22;2578;51.622;7.046;2022-08-21T16:07:44;26.60;1.00
5118;DHT22;2578;51.622;7.046;2022-08-21T16:10:11;26.70;1.00
5118;DHT22;2578;51.622;7.046;2022-08-21T16:12:44;26.50;1.00
5118;DHT22;2578;51.622;7.046;2022-08-21T16:15:13;26.50;1.00
5118;DHT22;2578;51.622;7.046;2022-08-21T16:17:41;26.50;1.00
5118;DHT22;2578;51.622;7.046;2022-08-21T16:20:11;26.50;1.00
5118;DHT22;2578;51.622;7.046;2022-08-21T16:22:37;26.40;1.00
5118;DHT22;2578;51.622;7.046;2022-08-21T16:25:04;26.50;1.00
5118;DHT22;2578;51.622;7.046;2022-08-21T16:27:31;26.50;1.00
5118;DHT22;2578;51.622;7.046;2022-08-21T16:29:56;26.60;1.00
5118;DHT22;2578;51.622;7.046;2022-08-21T16:32:22;26.70;1.00
5118;DHT22;2578;51.622;7.046;2022-08-21T16:34:49;26.80;1.00
5118;DHT22;2578;51.622;7.046;2022-08-21T16:37:16;26.70;1.00
5118;DHT22;2578;51.622;7.046;2022-08-21T16:39:42;26.60;1.00
5118;DHT22;2578;51.622;7.046;2022-08-21T16:42:17;26.60;1.00
5118;DHT22;2578;51.622;7.046;2022-08-21T16:44:44;26.70;1.00
5118;DHT22;2578;51.622;7.046;2022-08-21T16:47:09;26.50;1.00
5118;DHT22;2578;51.622;7.046;2022-08-21T16:49:35;26.40;1.00
5118;DHT22;2578;51.622;7.046;2022-08-21T16:52:01;26.50;1.00
5118;DHT22;2578;51.622;7.046;2022-08-21T16:54:27;26.60;1.00
5118;DHT22;2578;51.622;7.046;2022-08-21T16:56:55;26.90;1.00
5118;DHT22;2578;51.622;7.046;2022-08-21T16:59:21;26.90;1.00
5118;DHT22;2578;51.622;7.046;2022-08-21T17:01:47;26.90;1.00
5118;DHT22;2578;51.622;7.046;2022-08-21T17:04:12;26.70;1.00
5118;DHT22;2578;51.622;7.046;2022-08-21T17:06:38;26.60;1.00
5118;DHT22;2578;51.622;7.046;2022-08-21T17:09:04;26.20;1.00
5118;DHT22;2578;51.622;7.046;2022-08-21T17:11:33;25.90;1.00
5118;DHT22;2578;51.622;7.046;2022-08-21T17:14:01;25.60;1.00
5118;DHT22;2578;51.622;7.046;2022-08-21T17:16:27;25.50;1.00
5118;DHT22;2578;51.622;7.046;2022-08-21T17:18:54;25.20;1.00
5118;DHT22;2578;51.622;7.046;2022-08-21T17:21:19;25.10;1.00
5118;DHT22;2578;51.622;7.046;2022-08-21T17:23:46;24.90;1.00
5118;DHT22;2578;51.622;7.046;2022-08-21T17:26:13;24.80;1.00
5118;DHT22;2578;51.622;7.046;2022-08-21T17:28:40;24.60;1.00
5118;DHT22;2578;51.622;7.046;2022-08-21T17:31:08;24.50;1.00
5118;DHT22;2578;51.622;7.046;2022-08-21T17:33:46;24.50;1.00
5118;DHT22;2578;51.622;7.046;2022-08-21T17:36:20;24.40;1.00
5118;DHT22;2578;51.622;7.046;2022-08-21T17:38:46;24.20;1.00
5118;DHT22;2578;51.622;7.046;2022-08-21T17:41:12;24.20;1.00
5118;DHT22;2578;51.622;7.046;2022-08-21T17:43:39;24.00;1.00
5118;DHT22;2578;51.622;7.046;2022-08-21T17:46:05;23.80;1.00
5118;DHT22;2578;51.622;7.046;2022-08-21T17:48:31;23.60;1.00
5118;DHT22;2578;51.622;7.046;2022-08-21T17:50:57;23.50;1.00
5118;DHT22;2578;51.622;7.046;2022-08-21T17:53:23;23.40;1.00
5118;DHT22;2578;51.622;7.046;2022-08-21T17:55:49;23.30;1.00
5118;DHT22;2578;51.622;7.046;2022-08-21T17:58:15;23.10;4.50
5118;DHT22;2578;51.622;7.046;2022-08-21T18:00:42;22.90;6.60
5118;DHT22;2578;51.622;7.046;2022-08-21T18:03:20;22.80;10.90